createdAt,value
2019-05-22T00:01:56.666Z,31.17
2019-05-22T00:04:28.652Z,38.60
2019-05-22T00:07:00.792Z,35.70
2019-05-22T00:09:42.495Z,36.38
2019-05-22T00:12:21.137Z,34.90
2019-05-22T00:14:52.779Z,32.28
2019-05-22T00:17:29.015Z,34.50
2019-05-22T00:19:59.267Z,33.70
2019-05-22T00:22:33.480Z,37.60
2019-05-22T00:25:04.963Z,38.23
2019-05-22T00:27:35.119Z,34.98
2019-05-22T00:30:06.096Z,32.73
2019-05-22T00:32:36.928Z,33.00
2019-05-22T00:35:09.071Z,35.87
2019-05-22T00:37:38.511Z,37.67
2019-05-22T00:40:09.306Z,33.67
2019-05-22T00:42:39.773Z,36.48
2019-05-22T00:45:12.665Z,41.50
2019-05-22T00:47:42.190Z,41.60
2019-05-22T00:50:14.161Z,37.55
2019-05-22T00:52:49.835Z,38.95
2019-05-22T00:55:39.955Z,44.23
2019-05-22T00:58:13.883Z,46.37
2019-05-22T01:01:04.582Z,43.98
2019-05-22T01:03:36.333Z,41.90
2019-05-22T01:06:08.848Z,40.75
2019-05-22T01:08:40.169Z,42.10
2019-05-22T01:11:10.660Z,40.95
2019-05-22T01:13:41.059Z,47.00
2019-05-22T01:16:13.620Z,37.45
2019-05-22T01:18:43.810Z,41.10
2019-05-22T01:21:15.004Z,38.58
2019-05-22T01:23:43.973Z,40.65
2019-05-22T01:26:18.867Z,39.95
2019-05-22T01:28:48.431Z,48.83
2019-05-22T01:31:31.132Z,45.40
2019-05-22T01:34:05.469Z,40.17
2019-05-22T01:36:36.307Z,44.67
2019-05-22T01:39:22.255Z,40.95
2019-05-22T01:41:54.211Z,39.20
2019-05-22T01:44:24.658Z,50.33
2019-05-22T01:46:56.547Z,36.60
2019-05-22T01:49:26.837Z,37.78
2019-05-22T01:51:56.392Z,35.98
2019-05-22T01:54:25.619Z,45.23
2019-05-22T01:57:04.105Z,46.23
2019-05-22T01:59:36.710Z,51.23
2019-05-22T02:02:09.360Z,49.42
2019-05-22T02:04:38.566Z,46.98
2019-05-22T02:07:09.380Z,44.95
2019-05-22T02:09:41.211Z,45.25
2019-05-22T02:12:25.488Z,42.98
2019-05-22T02:14:56.036Z,53.85
2019-05-22T02:17:31.645Z,46.50
2019-05-22T02:20:00.694Z,52.45
2019-05-22T02:22:30.598Z,51.40
2019-05-22T02:24:59.765Z,48.95
2019-05-22T02:27:30.041Z,48.78
2019-05-22T02:29:59.225Z,45.28
2019-05-22T02:32:29.236Z,44.40
2019-05-22T02:34:58.053Z,42.45
2019-05-22T02:37:28.614Z,45.35
2019-05-22T02:39:57.560Z,49.00
2019-05-22T02:42:29.757Z,45.95
2019-05-22T02:44:59.883Z,43.15
2019-05-22T02:47:31.501Z,39.27
2019-05-22T02:50:01.518Z,37.70
2019-05-22T02:52:30.646Z,39.00
2019-05-22T02:54:59.690Z,44.90
2019-05-22T02:57:30.427Z,36.08
2019-05-22T03:00:00.675Z,36.53
2019-05-22T03:02:32.352Z,38.98
2019-05-22T03:05:07.026Z,33.02
2019-05-22T03:07:36.676Z,39.95
2019-05-22T03:10:08.011Z,47.23
2019-05-22T03:12:38.522Z,35.60
2019-05-22T03:15:10.880Z,37.60
2019-05-22T03:17:41.821Z,40.50
2019-05-22T03:20:13.811Z,34.73
2019-05-22T03:22:50.446Z,30.17
2019-05-22T03:25:20.240Z,36.05
2019-05-22T03:27:52.066Z,37.20
2019-05-22T03:30:26.417Z,32.73
2019-05-22T03:32:56.144Z,30.80
2019-05-22T03:35:46.908Z,31.87
2019-05-22T03:38:18.023Z,29.92
2019-05-22T03:40:47.993Z,27.02
2019-05-22T03:43:25.258Z,32.67
2019-05-22T03:45:56.057Z,29.70
2019-05-22T03:48:26.562Z,30.35
2019-05-22T03:51:00.715Z,28.02
2019-05-22T03:53:30.470Z,30.02
2019-05-22T03:55:59.573Z,28.30
2019-05-22T03:58:28.800Z,32.23
2019-05-22T04:00:58.820Z,28.50
2019-05-22T04:03:28.089Z,34.98
2019-05-22T04:05:57.358Z,31.30
2019-05-22T04:08:27.426Z,32.00
2019-05-22T04:10:59.016Z,36.73
2019-05-22T04:13:28.829Z,28.90
2019-05-22T04:15:58.596Z,31.17
2019-05-22T04:18:28.080Z,36.45
2019-05-22T04:20:58.900Z,31.82
2019-05-22T04:23:28.193Z,42.33
2019-05-22T04:25:59.033Z,42.27
2019-05-22T04:28:28.894Z,31.90
2019-05-22T04:30:59.960Z,39.95
2019-05-22T04:33:30.223Z,39.78
2019-05-22T04:36:00.504Z,38.20
2019-05-22T04:38:30.015Z,36.13
2019-05-22T04:41:01.816Z,43.55
2019-05-22T04:43:33.929Z,38.88
2019-05-22T04:46:05.292Z,45.25
2019-05-22T04:48:36.382Z,30.75
2019-05-22T04:51:23.982Z,35.03
2019-05-22T04:53:53.427Z,32.20
2019-05-22T04:56:23.481Z,34.75
2019-05-22T04:58:53.148Z,34.48
2019-05-22T05:01:22.234Z,30.72
2019-05-22T05:03:51.972Z,34.75
2019-05-22T05:06:23.833Z,32.75
2019-05-22T05:08:52.880Z,32.30
2019-05-22T05:11:21.883Z,34.27
2019-05-22T05:13:50.833Z,30.02
2019-05-22T05:16:19.743Z,29.98
2019-05-22T05:18:48.586Z,33.98
2019-05-22T05:21:17.634Z,34.50
2019-05-22T05:23:47.251Z,34.55
2019-05-22T05:26:16.578Z,35.95
2019-05-22T05:28:46.165Z,31.68
2019-05-22T05:31:15.911Z,34.90
2019-05-22T05:34:10.216Z,36.70
2019-05-22T05:36:39.753Z,33.28
2019-05-22T05:39:25.298Z,31.55
2019-05-22T05:41:54.079Z,26.73
2019-05-22T05:44:23.525Z,29.20
2019-05-22T05:46:52.346Z,30.32
2019-05-22T05:49:21.379Z,34.45
2019-05-22T05:51:50.562Z,32.80
2019-05-22T05:54:23.251Z,31.60
2019-05-22T05:56:52.396Z,28.50
2019-05-22T05:59:22.575Z,32.42
2019-05-22T06:01:54.172Z,32.13
2019-05-22T06:04:35.052Z,26.93
2019-05-22T06:07:21.721Z,26.42
2019-05-22T06:10:23.775Z,24.10
2019-05-22T06:12:52.772Z,28.90
2019-05-22T06:15:25.352Z,27.52
2019-05-22T06:18:34.308Z,29.00
2019-05-22T06:21:04.926Z,31.82
2019-05-22T06:24:31.712Z,37.75
2019-05-22T06:27:18.695Z,33.95
2019-05-22T06:29:57.104Z,39.23
2019-05-22T06:33:02.619Z,35.88
2019-05-22T06:35:36.081Z,32.98
2019-05-22T06:38:16.343Z,40.52
2019-05-22T06:40:46.107Z,35.05
2019-05-22T06:44:01.256Z,36.65
2019-05-22T06:46:46.604Z,38.38
2019-05-22T06:49:38.070Z,39.05
2019-05-22T06:52:08.442Z,43.23
2019-05-22T06:54:37.707Z,37.30
2019-05-22T06:57:24.681Z,46.28
2019-05-22T07:00:12.413Z,41.13
2019-05-22T07:02:26.976Z,43.23
2019-05-22T07:04:55.828Z,40.60
2019-05-22T07:07:28.883Z,48.90
2019-05-22T07:09:57.824Z,44.30
2019-05-22T07:12:26.913Z,40.80
2019-05-22T07:15:39.718Z,50.50
2019-05-22T07:18:12.771Z,48.33
2019-05-22T07:20:41.980Z,54.88
2019-05-22T07:23:16.765Z,43.40
2019-05-22T07:25:47.424Z,49.20
2019-05-22T07:28:19.309Z,48.17
2019-05-22T07:30:49.243Z,47.70
2019-05-22T07:33:19.678Z,47.50
2019-05-22T07:36:07.930Z,41.98
2019-05-22T07:38:20.907Z,51.42
2019-05-22T07:40:51.739Z,47.83
2019-05-22T07:43:21.583Z,44.80
2019-05-22T07:45:51.584Z,51.00
2019-05-22T07:48:23.072Z,52.35
2019-05-22T07:50:54.038Z,49.70
2019-05-22T07:53:25.299Z,47.30
2019-05-22T07:55:55.169Z,51.88
2019-05-22T07:58:25.610Z,46.40
2019-05-22T08:00:56.541Z,44.80
2019-05-22T08:03:26.008Z,48.87
2019-05-22T08:05:56.677Z,53.75
2019-05-22T08:08:26.567Z,62.30
2019-05-22T08:10:57.113Z,48.35
2019-05-22T08:13:27.635Z,48.42
2019-05-22T08:15:57.358Z,52.58
2019-05-22T08:18:26.975Z,47.08
2019-05-22T08:20:56.215Z,47.83
2019-05-22T08:23:26.942Z,51.08
2019-05-22T08:25:57.651Z,47.33
2019-05-22T08:28:27.635Z,51.42
2019-05-22T08:30:56.588Z,58.87
2019-05-22T08:33:25.639Z,51.20
2019-05-22T08:35:55.113Z,45.48
2019-05-22T08:38:28.631Z,47.08
2019-05-22T08:40:59.591Z,54.33
2019-05-22T08:43:30.005Z,43.13
2019-05-22T08:45:59.360Z,48.65
2019-05-22T08:48:28.817Z,47.58
2019-05-22T08:50:58.595Z,41.37
2019-05-22T08:53:28.510Z,50.43
2019-05-22T08:55:58.793Z,55.52
2019-05-22T08:58:27.804Z,57.30
2019-05-22T09:00:57.100Z,47.70
2019-05-22T09:03:25.907Z,47.88
2019-05-22T09:05:54.815Z,41.10
2019-05-22T09:08:24.046Z,37.67
2019-05-22T09:10:53.048Z,47.83
2019-05-22T09:13:22.318Z,46.00
2019-05-22T09:15:52.086Z,43.23
2019-05-22T09:18:21.105Z,40.80
2019-05-22T09:20:50.168Z,36.20
2019-05-22T09:23:19.311Z,39.35
2019-05-22T09:25:48.628Z,33.35
2019-05-22T09:28:17.945Z,34.55
2019-05-22T09:30:46.871Z,31.12
2019-05-22T09:33:16.112Z,39.25
2019-05-22T09:35:45.768Z,40.60
2019-05-22T09:38:14.728Z,34.83
2019-05-22T09:40:43.533Z,29.15
2019-05-22T09:43:12.346Z,32.58
2019-05-22T09:45:41.368Z,32.45
2019-05-22T09:48:10.395Z,33.67
2019-05-22T09:50:39.634Z,34.20
2019-05-22T09:53:09.173Z,35.35
2019-05-22T09:55:38.748Z,31.23
2019-05-22T09:58:08.632Z,32.42
2019-05-22T10:00:38.330Z,26.95
2019-05-22T10:03:07.691Z,32.28
2019-05-22T10:05:36.967Z,28.75
2019-05-22T10:08:06.602Z,27.85
2019-05-22T10:10:35.800Z,35.68
2019-05-22T10:13:05.770Z,33.55
2019-05-22T10:15:35.296Z,32.35
2019-05-22T10:18:04.911Z,38.63
2019-05-22T10:20:34.036Z,33.23
2019-05-22T10:23:15.076Z,35.83
2019-05-22T10:25:35.077Z,37.95
2019-05-22T10:28:06.010Z,37.50
2019-05-22T10:30:35.476Z,34.48
2019-05-22T10:33:04.880Z,37.75
2019-05-22T10:35:35.580Z,39.90
2019-05-22T10:38:04.573Z,33.30
2019-05-22T10:40:33.578Z,30.85
2019-05-22T10:43:03.059Z,32.35
2019-05-22T10:45:32.513Z,40.63
2019-05-22T10:48:01.923Z,35.20
2019-05-22T10:50:30.842Z,37.93
2019-05-22T10:52:59.671Z,37.90
2019-05-22T10:55:28.988Z,41.95
2019-05-22T10:57:57.797Z,39.13
2019-05-22T11:00:26.963Z,34.65
2019-05-22T11:02:56.269Z,41.70
2019-05-22T11:05:25.526Z,45.35
2019-05-22T11:07:54.290Z,42.53
2019-05-22T11:10:25.277Z,41.63
2019-05-22T11:12:54.472Z,45.23
2019-05-22T11:15:24.285Z,43.40
2019-05-22T11:17:53.539Z,38.42
2019-05-22T11:20:23.845Z,36.08
2019-05-22T11:22:53.057Z,31.95
2019-05-22T11:25:22.296Z,43.17
2019-05-22T11:27:52.521Z,40.20
2019-05-22T11:30:23.424Z,36.38
2019-05-22T11:32:53.407Z,34.75
2019-05-22T11:35:22.884Z,40.45
2019-05-22T11:37:51.801Z,36.65
2019-05-22T11:40:21.540Z,40.67
2019-05-22T11:42:51.896Z,39.27
2019-05-22T11:45:22.857Z,37.23
2019-05-22T11:47:53.563Z,40.63
2019-05-22T11:50:23.482Z,35.88
2019-05-22T11:52:52.709Z,30.40
2019-05-22T11:55:22.135Z,39.65
2019-05-22T11:57:51.677Z,35.03
2019-05-22T12:00:21.271Z,33.63
2019-05-22T12:02:50.359Z,32.38
2019-05-22T12:05:19.865Z,33.83
2019-05-22T12:07:49.061Z,30.72
2019-05-22T12:10:20.526Z,38.55
2019-05-22T12:12:50.923Z,31.25
2019-05-22T12:15:23.226Z,33.73
2019-05-22T12:17:53.458Z,27.05
2019-05-22T12:20:24.357Z,29.02
2019-05-22T12:22:53.380Z,31.52
2019-05-22T12:25:22.764Z,29.65
2019-05-22T12:27:51.898Z,32.42
2019-05-22T12:30:21.403Z,31.60
2019-05-22T12:32:50.452Z,31.23
2019-05-22T12:35:19.880Z,27.27
2019-05-22T12:37:49.093Z,29.35
2019-05-22T12:40:20.128Z,31.33
2019-05-22T12:42:49.730Z,26.70
2019-05-22T12:45:25.822Z,27.55
2019-05-22T12:47:54.930Z,26.73
2019-05-22T12:50:27.755Z,24.77
2019-05-22T12:52:56.844Z,23.38
2019-05-22T12:55:25.968Z,25.08
2019-05-22T12:57:55.543Z,26.00
2019-05-22T13:00:28.766Z,24.45
2019-05-22T13:02:59.851Z,28.52
2019-05-22T13:05:29.035Z,28.55
2019-05-22T13:07:58.391Z,22.00
2019-05-22T13:10:28.253Z,23.40
2019-05-22T13:12:57.370Z,21.40
2019-05-22T13:15:27.840Z,21.60
2019-05-22T13:17:59.305Z,24.15
2019-05-22T13:20:41.829Z,20.80
2019-05-22T13:23:03.383Z,20.72
2019-05-22T13:25:36.272Z,22.45
2019-05-22T13:28:07.194Z,17.55
2019-05-22T13:30:37.711Z,24.67
2019-05-22T13:33:08.421Z,22.15
2019-05-22T13:35:37.507Z,19.87
2019-05-22T13:38:06.830Z,24.52
2019-05-22T13:40:36.512Z,22.62
2019-05-22T13:43:05.698Z,16.80
2019-05-22T13:45:34.843Z,24.12
2019-05-22T13:48:04.045Z,20.90
2019-05-22T13:50:33.699Z,17.25
2019-05-22T13:53:04.699Z,22.48
2019-05-22T13:55:33.788Z,23.27
2019-05-22T13:58:03.809Z,21.62
2019-05-22T14:00:33.044Z,22.35
2019-05-22T14:03:01.891Z,22.32
2019-05-22T14:05:33.069Z,25.50
2019-05-22T14:08:01.951Z,23.83
2019-05-22T14:10:33.670Z,20.25
2019-05-22T14:13:02.542Z,22.62
2019-05-22T14:15:48.295Z,23.83
2019-05-22T14:18:02.752Z,22.02
2019-05-22T14:20:32.018Z,20.45
2019-05-22T14:23:01.131Z,25.35
2019-05-22T14:25:32.052Z,17.82
2019-05-22T14:28:01.143Z,19.57
2019-05-22T14:30:30.751Z,19.50
2019-05-22T14:33:04.280Z,22.37
2019-05-22T14:35:47.802Z,21.65
2019-05-22T14:38:06.156Z,26.07
2019-05-22T14:40:37.238Z,20.27
2019-05-22T14:43:06.224Z,23.10
2019-05-22T14:45:35.438Z,22.58
2019-05-22T14:48:04.579Z,26.02
2019-05-22T14:50:33.683Z,22.22
2019-05-22T14:53:02.989Z,21.07
2019-05-22T14:55:34.712Z,28.15
2019-05-22T14:58:05.894Z,23.65
2019-05-22T15:00:37.684Z,24.87
2019-05-22T15:03:07.004Z,25.60
2019-05-22T15:05:36.143Z,24.77
2019-05-22T15:08:05.907Z,26.23
2019-05-22T15:10:35.863Z,24.00
2019-05-22T15:13:05.492Z,23.30
2019-05-22T15:15:35.273Z,31.27
2019-05-22T15:18:04.827Z,27.17
2019-05-22T15:20:37.255Z,26.97
2019-05-22T15:23:07.401Z,32.48
2019-05-22T15:25:36.837Z,27.98
2019-05-22T15:28:06.307Z,29.60
2019-05-22T15:30:35.529Z,30.08
2019-05-22T15:33:04.865Z,32.48
2019-05-22T15:35:34.624Z,24.72
2019-05-22T15:38:04.434Z,26.75
2019-05-22T15:40:34.706Z,27.05
2019-05-22T15:43:05.857Z,32.25
2019-05-22T15:45:36.169Z,27.75
2019-05-22T15:48:08.088Z,27.77
2019-05-22T15:50:38.894Z,29.57
2019-05-22T15:53:15.027Z,44.03
2019-05-22T15:55:44.142Z,40.85
2019-05-22T15:58:15.303Z,32.93
2019-05-22T16:00:47.372Z,35.33
2019-05-22T16:03:20.961Z,38.88
2019-05-22T16:05:52.195Z,34.90
2019-05-22T16:08:21.572Z,41.50
2019-05-22T16:10:52.286Z,37.13
2019-05-22T16:13:24.375Z,39.03
2019-05-22T16:15:55.710Z,37.40
2019-05-22T16:18:28.337Z,32.58
2019-05-22T16:20:59.903Z,34.75
2019-05-22T16:23:31.672Z,34.40
2019-05-22T16:26:03.566Z,34.30
2019-05-22T16:28:35.989Z,42.30
2019-05-22T16:31:06.987Z,44.33
2019-05-22T16:33:37.037Z,40.30
2019-05-22T16:36:06.516Z,35.95
2019-05-22T16:38:37.346Z,38.10
2019-05-22T16:41:08.285Z,38.40
2019-05-22T16:43:48.918Z,41.13
2019-05-22T16:46:10.393Z,34.63
2019-05-22T16:48:41.092Z,38.65
2019-05-22T16:51:11.644Z,36.63
2019-05-22T16:53:40.965Z,42.30
2019-05-22T16:56:10.437Z,34.08
2019-05-22T16:58:39.319Z,43.80
2019-05-22T17:01:10.978Z,41.25
2019-05-22T17:03:40.057Z,35.08
2019-05-22T17:06:09.121Z,36.80
2019-05-22T17:08:38.401Z,41.00
2019-05-22T17:11:07.900Z,33.02
2019-05-22T17:13:36.788Z,38.78
2019-05-22T17:16:08.579Z,37.55
2019-05-22T17:18:47.500Z,31.73
2019-05-22T17:21:08.727Z,39.10
2019-05-22T17:23:37.992Z,41.83
2019-05-22T17:26:07.791Z,33.28
2019-05-22T17:28:36.795Z,38.70
2019-05-22T17:31:06.179Z,39.38
2019-05-22T17:33:35.203Z,41.00
2019-05-22T17:36:05.742Z,39.92
2019-05-22T17:38:35.490Z,37.98
2019-05-22T17:41:04.854Z,41.80
2019-05-22T17:43:34.095Z,35.65
2019-05-22T17:46:05.515Z,32.30
2019-05-22T17:48:34.927Z,51.50
2019-05-22T17:51:04.370Z,40.25
2019-05-22T17:53:33.780Z,32.98
2019-05-22T17:56:02.563Z,41.73
2019-05-22T17:58:31.659Z,37.95
2019-05-22T18:01:02.062Z,49.77
2019-05-22T18:03:31.762Z,43.90
2019-05-22T18:06:10.981Z,46.33
2019-05-22T18:08:40.432Z,41.68
2019-05-22T18:11:09.813Z,37.90
2019-05-22T18:13:53.873Z,44.48
2019-05-22T18:16:23.288Z,48.38
2019-05-22T18:18:52.284Z,41.77
2019-05-22T18:21:21.292Z,48.42
2019-05-22T18:23:50.288Z,36.08
2019-05-22T18:26:19.440Z,41.05
2019-05-22T18:28:48.570Z,37.23
2019-05-22T18:31:17.595Z,40.55
2019-05-22T18:33:46.561Z,53.42
2019-05-22T18:36:15.771Z,47.93
2019-05-22T18:38:44.862Z,41.88
2019-05-22T18:41:14.213Z,35.00
2019-05-22T18:43:43.905Z,52.40
2019-05-22T18:46:13.660Z,36.38
2019-05-22T18:48:42.987Z,40.10
2019-05-22T18:51:12.168Z,43.00
2019-05-22T18:53:41.182Z,41.10
2019-05-22T18:56:11.075Z,43.15
2019-05-22T18:58:40.474Z,41.40
2019-05-22T19:01:09.330Z,44.18
2019-05-22T19:03:38.947Z,39.65
2019-05-22T19:06:08.157Z,44.48
2019-05-22T19:08:37.081Z,47.70
2019-05-22T19:11:05.954Z,39.92
2019-05-22T19:13:35.501Z,41.48
2019-05-22T19:16:04.644Z,49.27
2019-05-22T19:18:33.532Z,36.65
2019-05-22T19:21:02.990Z,48.05
2019-05-22T19:23:32.108Z,45.20
2019-05-22T19:26:05.022Z,53.50
2019-05-22T19:28:43.691Z,34.67
2019-05-22T19:31:04.013Z,43.35
2019-05-22T19:33:33.517Z,45.30
2019-05-22T19:36:02.872Z,42.40
2019-05-22T19:38:32.051Z,45.20
2019-05-22T19:41:01.230Z,36.45
2019-05-22T19:43:30.320Z,49.03
2019-05-22T19:45:59.500Z,43.42
2019-05-22T19:48:28.687Z,45.00
2019-05-22T19:50:57.803Z,54.75
2019-05-22T19:53:28.239Z,48.35
2019-05-22T19:55:57.352Z,46.45
2019-05-22T19:58:26.678Z,46.92
2019-05-22T20:00:55.656Z,32.58
2019-05-22T20:03:25.314Z,31.37
2019-05-22T20:05:55.147Z,40.23
2019-05-22T20:08:24.088Z,37.10
2019-05-22T20:10:53.339Z,48.87
2019-05-22T20:13:23.750Z,40.10
2019-05-22T20:15:53.562Z,36.85
2019-05-22T20:18:22.568Z,38.75
2019-05-22T20:20:51.987Z,37.05
2019-05-22T20:23:34.548Z,39.83
2019-05-22T20:25:52.326Z,42.58
2019-05-22T20:28:21.225Z,37.60
2019-05-22T20:30:50.488Z,37.33
2019-05-22T20:33:19.381Z,33.40
2019-05-22T20:35:48.418Z,44.35
2019-05-22T20:38:17.542Z,43.63
2019-05-22T20:40:46.829Z,37.45
2019-05-22T20:43:16.887Z,39.27
2019-05-22T20:45:46.533Z,31.75
2019-05-22T20:48:24.410Z,36.88
2019-05-22T20:50:55.337Z,43.23
2019-05-22T20:53:25.624Z,40.30
2019-05-22T20:55:54.970Z,32.75
2019-05-22T20:58:26.327Z,36.08
2019-05-22T21:00:55.341Z,31.80
2019-05-22T21:03:24.434Z,38.33
2019-05-22T21:05:54.922Z,30.32
2019-05-22T21:08:25.305Z,32.28
2019-05-22T21:10:56.407Z,34.50
2019-05-22T21:13:26.116Z,31.27
2019-05-22T21:15:56.037Z,30.45
2019-05-22T21:18:30.982Z,35.80
2019-05-22T21:21:00.305Z,33.10
2019-05-22T21:23:30.178Z,30.12
2019-05-22T21:25:59.361Z,32.90
2019-05-22T21:28:28.521Z,29.20
2019-05-22T21:30:58.074Z,29.82
2019-05-22T21:33:28.410Z,28.50
2019-05-22T21:35:58.684Z,26.60
2019-05-22T21:38:29.152Z,26.27
2019-05-22T21:40:58.824Z,22.58
2019-05-22T21:43:28.566Z,25.80
2019-05-22T21:45:58.480Z,23.55
2019-05-22T21:48:28.677Z,23.15
2019-05-22T21:50:58.061Z,23.32
2019-05-22T21:53:27.837Z,24.12
2019-05-22T21:56:04.908Z,25.05
2019-05-22T21:58:29.518Z,25.60
2019-05-22T22:01:26.249Z,25.12
2019-05-22T22:04:17.126Z,22.07
2019-05-22T22:06:46.827Z,23.90
2019-05-22T22:09:17.214Z,27.70
2019-05-22T22:11:46.293Z,22.40
2019-05-22T22:14:16.826Z,23.55
2019-05-22T22:16:48.105Z,26.73
2019-05-22T22:19:18.505Z,22.55
2019-05-22T22:21:48.490Z,24.55
2019-05-22T22:24:18.173Z,25.50
2019-05-22T22:26:48.415Z,23.32
2019-05-22T22:29:17.614Z,20.62
2019-05-22T22:31:47.186Z,23.22
2019-05-22T22:34:23.241Z,22.22
2019-05-22T22:36:52.981Z,21.62
2019-05-22T22:39:23.289Z,24.20
2019-05-22T22:41:53.174Z,20.05
2019-05-22T22:44:22.552Z,22.07
2019-05-22T22:47:01.319Z,22.95
2019-05-22T22:49:30.795Z,22.27
2019-05-22T22:52:01.086Z,23.10
2019-05-22T22:54:30.819Z,26.70
2019-05-22T22:57:00.439Z,22.15
2019-05-22T22:59:29.712Z,28.38
2019-05-22T23:02:00.522Z,25.82
2019-05-22T23:04:30.957Z,24.43
2019-05-22T23:07:05.780Z,23.77
2019-05-22T23:09:36.931Z,21.77
2019-05-22T23:12:07.946Z,21.02
2019-05-22T23:14:40.532Z,22.22
2019-05-22T23:17:11.142Z,24.70
2019-05-22T23:19:46.689Z,24.05
2019-05-22T23:22:19.420Z,22.42
2019-05-22T23:24:51.951Z,22.70
2019-05-22T23:27:23.352Z,26.90
2019-05-22T23:29:53.978Z,22.25
2019-05-22T23:32:24.008Z,25.52
2019-05-22T23:34:54.094Z,20.20
2019-05-22T23:37:24.005Z,21.97
2019-05-22T23:39:54.197Z,23.38
2019-05-22T23:42:34.713Z,22.65
2019-05-22T23:45:07.102Z,23.62
2019-05-22T23:47:43.744Z,20.43
2019-05-22T23:50:13.272Z,24.15
2019-05-22T23:52:43.021Z,19.62
2019-05-22T23:55:12.660Z,21.68
2019-05-22T23:57:41.522Z,22.87
